This is the latest recevied weather packets stored in our database for station/object DG8SF-13. If no packets are shown the sender has not sent any weather packets the latest 10 day(s).
| Time | Temp. | Humidity | Pressure | Rain* | Wind** | Luminosity | Snow |
|---|---|---|---|---|---|---|---|
| 1777766131 | 8.89° C | 74% | 1016.2 hPa | 0 mm | - | - | - |
| 1777763948 | 9.44° C | 73% | 1016.4 hPa | 0 mm | - | - | - |
| 1777763633 | 9.44° C | 73% | 1016.4 hPa | 0 mm | - | - | - |
| 1777763323 | 9.44° C | 73% | 1016.4 hPa | 0 mm | - | - | - |
| 1777760827 | 10.56° C | 68% | 1016.5 hPa | 0 mm | - | - | - |
| 1777760516 | 10.56° C | 68% | 1016.6 hPa | 0 mm | - | - | - |
| 1777760203 | 10.56° C | 68% | 1016.6 hPa | 0 mm | - | - | - |
| 1777759892 | 10.56° C | 68% | 1016.5 hPa | 0 mm | - | - | - |
| 1777759266 | 10.56° C | 68% | 1016.5 hPa | 0 mm | - | - | - |
| 1777758955 | 10.56° C | 68% | 1016.6 hPa | 0 mm | - | - | - |
| 1777758019 | 11.11° C | 65% | 1016.5 hPa | 0 mm | - | - | - |
| 1777757711 | 11.67° C | 64% | 1016.5 hPa | 0 mm | - | - | - |
| 1777757395 | 11.67° C | 64% | 1016.5 hPa | 0 mm | - | - | - |
| 1777757085 | 11.67° C | 64% | 1016.6 hPa | 0 mm | - | - | - |
| 1777756772 | 11.67° C | 63% | 1016.6 hPa | 0 mm | - | - | - |
| 1777756461 | 11.67° C | 64% | 1016.7 hPa | 0 mm | - | - | - |
| 1777756147 | 11.67° C | 63% | 1016.6 hPa | 0 mm | - | - | - |
| 1777755836 | 12.22° C | 63% | 1016.6 hPa | 0 mm | - | - | - |
| 1777755522 | 12.22° C | 62% | 1016.6 hPa | 0 mm | - | - | - |
| 1777754274 | 12.22° C | 63% | 1016.7 hPa | 0 mm | - | - | - |
| 1777753027 | 13.33° C | 59% | 1016.9 hPa | 0 mm | - | - | - |
| 1777752714 | 13.33° C | 59% | 1016.9 hPa | 0 mm | - | - | - |
| 1777752403 | 13.33° C | 59% | 1017 hPa | 0 mm | - | - | - |
| 1777752093 | 13.33° C | 60% | 1017 hPa | 0 mm | - | - | - |
| 1777751155 | 13.89° C | 57% | 1017 hPa | 0 mm | - | - | - |
* Rain latest hour (hover to see other rain measurements)
** Current wind speed in m/s (hover to see current wind gust speed)